createdAt,value
2023-09-09T00:01:58.418Z,5.93
2023-09-09T00:04:25.119Z,5.72
2023-09-09T00:06:51.765Z,5.93
2023-09-09T00:09:18.505Z,5.60
2023-09-09T00:11:45.107Z,5.75
2023-09-09T00:14:11.797Z,5.75
2023-09-09T00:16:38.575Z,5.53
2023-09-09T00:19:06.399Z,5.72
2023-09-09T00:21:33.070Z,6.00
2023-09-09T00:23:59.697Z,5.57
2023-09-09T00:26:28.989Z,5.97
2023-09-09T00:28:55.835Z,5.78
2023-09-09T00:31:22.626Z,5.70
2023-09-09T00:33:49.344Z,6.35
2023-09-09T00:36:16.248Z,5.60
2023-09-09T00:38:43.035Z,6.53
2023-09-09T00:41:18.617Z,5.80
2023-09-09T00:43:46.506Z,5.25
2023-09-09T00:46:15.119Z,5.85
2023-09-09T00:48:41.828Z,5.80
2023-09-09T00:51:12.832Z,6.05
2023-09-09T00:53:40.701Z,6.22
2023-09-09T00:56:07.728Z,6.50
2023-09-09T00:58:34.471Z,6.22
2023-09-09T01:01:03.422Z,5.97
2023-09-09T01:03:32.006Z,5.72
2023-09-09T01:05:59.206Z,5.90
2023-09-09T01:08:29.977Z,6.60
2023-09-09T01:10:57.873Z,6.10
2023-09-09T01:13:24.974Z,6.20
2023-09-09T01:15:54.835Z,6.30
2023-09-09T01:18:22.530Z,6.05
2023-09-09T01:21:00.928Z,6.25
2023-09-09T01:23:27.660Z,6.38
2023-09-09T01:25:54.363Z,6.28
2023-09-09T01:28:23.438Z,6.03
2023-09-09T01:30:50.841Z,6.22
2023-09-09T01:33:18.173Z,6.15
2023-09-09T01:40:38.362Z,6.15
2023-09-09T01:43:05.064Z,6.28
2023-09-09T01:45:31.790Z,6.82
2023-09-09T01:47:59.787Z,6.85
2023-09-09T01:50:26.650Z,7.28
2023-09-09T01:52:53.431Z,6.68
2023-09-09T01:55:20.146Z,6.55
2023-09-09T01:57:48.163Z,6.95
2023-09-09T02:00:15.693Z,6.30
2023-09-09T02:02:42.469Z,6.13
2023-09-09T02:05:10.659Z,6.55
2023-09-09T02:07:37.387Z,6.60
2023-09-09T02:10:04.619Z,6.30
2023-09-09T02:14:58.098Z,6.18
2023-09-09T02:17:24.817Z,6.88
2023-09-09T02:19:58.403Z,6.38
2023-09-09T02:22:25.393Z,6.93
2023-09-09T02:24:56.812Z,6.95
2023-09-09T02:27:24.438Z,6.40
2023-09-09T02:29:51.661Z,6.78
2023-09-09T02:32:18.940Z,7.25
2023-09-09T02:34:46.070Z,7.78
2023-09-09T02:37:23.127Z,7.05
2023-09-09T02:39:51.542Z,7.40
2023-09-09T02:42:20.528Z,6.80
2023-09-09T02:44:48.098Z,7.40
2023-09-09T02:49:42.057Z,7.28
2023-09-09T02:52:09.065Z,7.45
2023-09-09T02:54:36.254Z,7.28
2023-09-09T02:57:04.970Z,6.85
2023-09-09T02:59:34.322Z,7.88
2023-09-09T03:02:01.817Z,7.55
2023-09-09T03:04:28.760Z,7.35
2023-09-09T03:06:55.355Z,7.80
2023-09-09T03:09:22.145Z,8.05
2023-09-09T03:11:48.820Z,8.20
2023-09-09T03:14:15.700Z,7.97
2023-09-09T03:16:42.490Z,8.40
2023-09-09T03:19:09.169Z,8.73
2023-09-09T03:21:35.757Z,8.20
2023-09-09T03:24:02.389Z,8.07
2023-09-09T03:26:29.089Z,7.82
2023-09-09T03:28:55.689Z,7.32
2023-09-09T03:31:22.318Z,7.80
2023-09-09T03:33:48.947Z,8.30
2023-09-09T03:36:15.633Z,8.10
2023-09-09T03:38:42.226Z,7.97
2023-09-09T03:41:09.202Z,8.07
2023-09-09T03:43:37.854Z,7.63
2023-09-09T03:46:05.238Z,7.72
2023-09-09T03:48:32.069Z,7.57
2023-09-09T03:51:02.961Z,7.68
2023-09-09T03:53:29.807Z,8.00
2023-09-09T03:55:56.663Z,8.65
2023-09-09T03:58:25.364Z,7.88
2023-09-09T04:01:09.244Z,8.20
2023-09-09T04:03:38.243Z,8.45
2023-09-09T04:06:07.899Z,8.13
2023-09-09T04:08:36.460Z,7.80
2023-09-09T04:11:04.261Z,8.23
2023-09-09T04:13:31.545Z,8.35
2023-09-09T04:15:59.655Z,8.43
2023-09-09T04:18:42.986Z,8.25
2023-09-09T04:21:11.202Z,8.35
2023-09-09T04:23:38.000Z,8.37
2023-09-09T04:26:04.966Z,8.65
2023-09-09T04:28:31.588Z,8.48
2023-09-09T04:30:58.168Z,8.60
2023-09-09T04:33:25.000Z,9.10
2023-09-09T04:35:51.681Z,8.95
2023-09-09T04:38:18.367Z,8.77
2023-09-09T04:40:44.991Z,8.48
2023-09-09T04:43:11.575Z,9.05
2023-09-09T04:45:38.224Z,9.43
2023-09-09T04:48:06.437Z,8.52
2023-09-09T04:50:33.268Z,9.13
2023-09-09T04:53:00.025Z,8.65
2023-09-09T04:55:26.745Z,9.00
2023-09-09T04:57:53.402Z,9.02
2023-09-09T05:00:20.065Z,9.38
2023-09-09T05:02:46.745Z,9.43
2023-09-09T05:05:13.431Z,9.38
2023-09-09T05:07:40.025Z,9.75
2023-09-09T05:10:07.545Z,9.23
2023-09-09T05:12:35.222Z,8.85
2023-09-09T05:15:01.855Z,9.48
2023-09-09T05:17:28.688Z,9.25
2023-09-09T05:19:55.654Z,10.30
2023-09-09T05:22:22.263Z,10.98
2023-09-09T05:24:48.948Z,10.93
2023-09-09T05:27:15.507Z,9.90
2023-09-09T05:29:44.228Z,9.73
2023-09-09T05:32:11.298Z,9.43
2023-09-09T05:34:38.108Z,9.50
2023-09-09T05:37:04.966Z,10.48
2023-09-09T05:39:31.623Z,9.70
2023-09-09T05:41:58.273Z,9.70
2023-09-09T05:44:24.919Z,9.15
2023-09-09T05:46:51.645Z,9.48
2023-09-09T05:49:32.088Z,8.75
2023-09-09T05:52:03.410Z,8.65
2023-09-09T05:54:29.999Z,8.65
2023-09-09T05:56:57.627Z,8.95
2023-09-09T05:59:24.404Z,8.75
2023-09-09T06:01:51.128Z,8.43
2023-09-09T06:04:17.878Z,7.85
2023-09-09T06:06:48.163Z,7.50
2023-09-09T06:09:14.804Z,7.72
2023-09-09T06:11:41.652Z,7.38
2023-09-09T06:14:08.474Z,7.38
2023-09-09T06:16:35.127Z,7.32
2023-09-09T06:19:01.788Z,7.10
2023-09-09T06:21:28.541Z,7.15
2023-09-09T06:23:56.126Z,10.88
2023-09-09T06:26:22.771Z,7.10
2023-09-09T06:28:49.509Z,6.50
2023-09-09T06:31:16.170Z,6.22
2023-09-09T06:33:44.938Z,6.88
2023-09-09T06:36:12.502Z,6.13
2023-09-09T06:41:06.104Z,6.30
2023-09-09T06:43:32.746Z,5.70
2023-09-09T06:46:01.333Z,6.05
2023-09-09T06:48:30.282Z,6.25
2023-09-09T06:50:57.501Z,5.45
2023-09-09T06:55:53.148Z,5.70
2023-09-09T07:00:53.379Z,8.20
2023-09-09T07:03:21.240Z,6.47
2023-09-09T07:05:48.497Z,5.85
2023-09-09T07:10:51.950Z,6.10
2023-09-09T07:23:06.246Z,6.57
2023-09-09T07:25:34.671Z,7.30
2023-09-09T07:28:01.494Z,5.53
2023-09-09T07:30:28.107Z,5.43
2023-09-09T07:32:54.700Z,5.38
2023-09-09T07:35:22.056Z,5.60
2023-09-09T07:37:51.505Z,5.55
2023-09-09T07:40:19.177Z,5.38
2023-09-09T07:45:12.457Z,4.78
2023-09-09T07:47:39.713Z,7.47
2023-09-09T07:50:07.333Z,4.90
2023-09-09T07:52:33.942Z,4.70
2023-09-09T07:55:00.507Z,4.35
2023-09-09T07:57:27.207Z,4.40
2023-09-09T07:59:53.973Z,4.57
2023-09-09T08:02:20.538Z,4.43
2023-09-09T08:04:48.406Z,4.40
2023-09-09T08:07:15.153Z,4.25
2023-09-09T08:09:42.351Z,3.83
2023-09-09T08:12:09.126Z,3.88
2023-09-09T08:14:35.713Z,3.95
2023-09-09T08:17:02.354Z,4.25
2023-09-09T08:19:29.088Z,4.40
2023-09-09T08:21:55.653Z,4.10
2023-09-09T08:24:22.979Z,4.20
2023-09-09T08:26:49.829Z,3.50
2023-09-09T08:29:16.443Z,3.22
2023-09-09T08:31:43.136Z,3.00
2023-09-09T08:34:09.748Z,4.65
2023-09-09T08:36:36.375Z,2.95
2023-09-09T08:39:03.029Z,2.92
2023-09-09T08:42:09.830Z,3.10
2023-09-09T08:44:46.111Z,2.75
2023-09-09T08:47:13.097Z,2.78
2023-09-09T08:52:17.408Z,15.50
2023-09-09T08:54:44.894Z,2.83
2023-09-09T08:57:11.690Z,2.85
2023-09-09T09:02:09.678Z,3.15
2023-09-09T09:04:38.174Z,3.28
2023-09-09T09:07:06.653Z,2.60
2023-09-09T09:09:35.867Z,2.90
2023-09-09T09:12:04.348Z,2.83
2023-09-09T09:14:31.312Z,2.70
2023-09-09T09:16:58.044Z,2.63
2023-09-09T09:19:28.699Z,2.80
2023-09-09T09:21:56.622Z,2.60
2023-09-09T09:24:27.654Z,2.70
2023-09-09T09:26:56.225Z,3.00
2023-09-09T09:29:23.118Z,5.35
2023-09-09T09:34:21.228Z,3.50
2023-09-09T09:36:48.058Z,2.45
2023-09-09T09:39:16.554Z,2.63
2023-09-09T09:41:44.620Z,2.53
2023-09-09T09:44:21.755Z,2.42
2023-09-09T09:47:05.246Z,2.10
2023-09-09T09:49:42.668Z,2.42
2023-09-09T09:52:09.903Z,3.00
2023-09-09T09:54:38.073Z,2.50
2023-09-09T09:57:06.389Z,2.40
2023-09-09T09:59:35.371Z,2.10
2023-09-09T10:02:04.687Z,2.38
2023-09-09T10:04:40.184Z,2.15
2023-09-09T10:07:11.257Z,2.47
2023-09-09T10:09:39.978Z,2.50
2023-09-09T10:12:42.051Z,2.42
2023-09-09T10:15:14.577Z,2.90
2023-09-09T10:17:42.333Z,3.00
2023-09-09T10:20:09.727Z,2.60
2023-09-09T10:22:37.527Z,2.60
2023-09-09T10:25:05.613Z,5.97
2023-09-09T10:27:33.087Z,4.97
2023-09-09T10:30:01.923Z,2.72
2023-09-09T10:32:29.433Z,2.58
2023-09-09T10:34:57.204Z,2.50
2023-09-09T10:37:24.042Z,2.58
2023-09-09T10:39:51.467Z,2.65
2023-09-09T10:42:19.816Z,5.65
2023-09-09T10:44:49.967Z,2.55
2023-09-09T10:47:17.929Z,2.42
2023-09-09T10:49:44.676Z,2.80
2023-09-09T10:52:33.765Z,2.38
2023-09-09T10:55:15.990Z,2.28
2023-09-09T10:57:43.507Z,2.40
2023-09-09T11:00:40.353Z,2.28
2023-09-09T11:03:11.456Z,2.30
2023-09-09T11:05:57.792Z,2.10
2023-09-09T11:08:30.542Z,2.13
2023-09-09T11:11:13.745Z,2.03
2023-09-09T11:13:41.706Z,2.03
2023-09-09T11:16:08.621Z,1.90
2023-09-09T11:21:06.635Z,1.80
2023-09-09T11:23:34.312Z,1.80
2023-09-09T11:26:02.670Z,2.00
2023-09-09T11:28:30.543Z,1.85
2023-09-09T11:30:57.183Z,1.90
2023-09-09T11:33:26.959Z,1.65
2023-09-09T11:35:53.676Z,1.50
2023-09-09T11:38:20.322Z,1.60
2023-09-09T11:40:47.384Z,1.35
2023-09-09T11:43:16.839Z,1.73
2023-09-09T11:45:43.638Z,1.73
2023-09-09T11:48:15.371Z,1.80
2023-09-09T11:50:43.299Z,1.33
2023-09-09T11:53:11.004Z,1.30
2023-09-09T11:55:37.775Z,1.38
2023-09-09T11:58:04.497Z,1.40
2023-09-09T12:00:31.512Z,1.65
2023-09-09T12:05:31.131Z,1.67
2023-09-09T12:08:03.103Z,1.48
2023-09-09T12:10:35.000Z,1.40
2023-09-09T12:13:01.933Z,1.55
2023-09-09T12:17:55.665Z,1.58
2023-09-09T12:22:49.229Z,1.50
2023-09-09T12:27:55.491Z,1.48
2023-09-09T12:30:32.942Z,1.73
2023-09-09T12:33:10.959Z,1.60
2023-09-09T12:35:49.017Z,1.95
2023-09-09T12:38:16.867Z,1.83
2023-09-09T12:40:46.486Z,1.48
2023-09-09T12:43:13.778Z,1.63
2023-09-09T12:45:48.116Z,1.40
2023-09-09T12:48:15.158Z,1.50
2023-09-09T12:53:11.701Z,1.80
2023-09-09T12:55:38.528Z,1.80
2023-09-09T12:58:05.248Z,2.38
2023-09-09T13:00:32.076Z,1.92
2023-09-09T13:02:58.799Z,3.33
2023-09-09T13:05:25.600Z,3.00
2023-09-09T13:07:52.184Z,1.52
2023-09-09T13:10:19.231Z,10.30
2023-09-09T13:15:14.885Z,1.50
2023-09-09T13:17:41.953Z,1.50
2023-09-09T13:20:09.301Z,1.92
2023-09-09T13:22:36.155Z,1.42
2023-09-09T13:25:03.249Z,3.00
2023-09-09T13:27:30.072Z,1.50
2023-09-09T13:29:56.679Z,1.52
2023-09-09T13:32:23.802Z,1.70
2023-09-09T13:34:50.482Z,1.55
2023-09-09T13:37:17.138Z,1.50
2023-09-09T13:39:43.795Z,1.70
2023-09-09T13:42:10.483Z,1.50
2023-09-09T13:44:40.745Z,1.70
2023-09-09T13:47:16.103Z,1.55
2023-09-09T13:52:13.038Z,1.50
2023-09-09T13:54:40.078Z,1.65
2023-09-09T13:57:07.477Z,1.55
2023-09-09T13:59:35.104Z,1.42
2023-09-09T14:02:03.209Z,1.60
2023-09-09T14:04:33.416Z,1.70
2023-09-09T14:07:00.093Z,1.42
2023-09-09T14:09:29.284Z,1.70
2023-09-09T14:11:56.524Z,1.67
2023-09-09T14:14:24.064Z,1.50
2023-09-09T14:16:52.093Z,1.60
2023-09-09T14:19:19.178Z,1.50
2023-09-09T14:21:45.828Z,1.42
2023-09-09T14:24:12.566Z,1.60
2023-09-09T14:26:39.473Z,1.60
2023-09-09T14:29:06.179Z,1.85
2023-09-09T14:31:33.113Z,1.55
2023-09-09T14:36:26.232Z,1.63
2023-09-09T14:38:52.979Z,1.52
2023-09-09T14:41:19.641Z,1.60
2023-09-09T14:43:46.418Z,1.52
2023-09-09T14:46:13.098Z,1.80
2023-09-09T14:48:57.940Z,1.67
2023-09-09T14:51:25.211Z,1.73
2023-09-09T14:53:51.979Z,2.38
2023-09-09T14:56:19.070Z,1.50
2023-09-09T15:01:12.200Z,1.60
2023-09-09T15:03:40.100Z,1.73
2023-09-09T15:06:07.090Z,1.40
2023-09-09T15:13:27.058Z,1.67
2023-09-09T15:15:53.834Z,2.58
2023-09-09T15:18:20.549Z,1.60
2023-09-09T15:20:47.320Z,1.70
2023-09-09T15:23:13.864Z,1.52
2023-09-09T15:25:40.622Z,1.80
2023-09-09T15:28:07.268Z,1.80
2023-09-09T15:30:33.930Z,1.90
2023-09-09T15:33:00.693Z,1.92
2023-09-09T15:35:29.778Z,2.03
2023-09-09T15:37:56.658Z,1.73
2023-09-09T15:40:23.449Z,1.90
2023-09-09T15:42:50.108Z,1.85
2023-09-09T15:45:16.923Z,1.90
2023-09-09T15:47:43.559Z,1.88
2023-09-09T15:50:11.540Z,1.70
2023-09-09T15:52:38.278Z,1.80
2023-09-09T15:55:05.075Z,1.70
2023-09-09T15:57:31.787Z,1.92
2023-09-09T15:59:58.470Z,1.70
2023-09-09T16:02:25.996Z,1.77
2023-09-09T16:04:52.732Z,1.88
2023-09-09T16:07:19.571Z,1.70
2023-09-09T16:09:46.232Z,1.98
2023-09-09T16:12:12.840Z,1.80
2023-09-09T16:14:39.485Z,1.60
2023-09-09T16:17:06.192Z,1.85
2023-09-09T16:19:32.880Z,2.30
2023-09-09T16:21:59.530Z,1.88
2023-09-09T16:24:26.215Z,1.73
2023-09-09T16:26:52.826Z,1.42
2023-09-09T16:29:19.413Z,2.05
2023-09-09T16:31:46.088Z,1.75
2023-09-09T16:34:12.692Z,1.70
2023-09-09T16:36:39.347Z,1.52
2023-09-09T16:39:05.946Z,2.10
2023-09-09T16:41:32.568Z,1.48
2023-09-09T16:43:59.329Z,2.25
2023-09-09T16:46:26.731Z,4.60
2023-09-09T16:48:53.733Z,3.20
2023-09-09T16:51:20.402Z,1.95
2023-09-09T16:53:47.935Z,2.38
2023-09-09T16:56:14.710Z,1.70
2023-09-09T16:58:41.893Z,1.77
2023-09-09T17:01:08.807Z,2.20
2023-09-09T17:03:35.812Z,1.92
2023-09-09T17:06:02.518Z,1.90
2023-09-09T17:08:29.465Z,2.00
2023-09-09T17:10:56.140Z,1.88
2023-09-09T17:13:22.809Z,1.70
2023-09-09T17:15:50.033Z,1.80
2023-09-09T17:20:43.460Z,1.70
2023-09-09T17:23:10.165Z,1.70
2023-09-09T17:25:36.770Z,1.60
2023-09-09T17:28:03.656Z,1.77
2023-09-09T17:30:30.310Z,1.85
2023-09-09T17:32:57.599Z,1.58
2023-09-09T17:35:25.213Z,1.95
2023-09-09T17:37:51.912Z,1.60
2023-09-09T17:40:19.364Z,1.65
2023-09-09T17:42:46.108Z,1.40
2023-09-09T17:45:12.888Z,1.50
2023-09-09T17:47:42.871Z,1.65
2023-09-09T17:50:09.879Z,1.52
2023-09-09T17:52:36.544Z,1.40
2023-09-09T17:55:04.941Z,1.75
2023-09-09T17:57:32.003Z,1.60
2023-09-09T18:02:25.208Z,1.40
2023-09-09T18:04:51.865Z,1.60
2023-09-09T18:07:18.533Z,1.45
2023-09-09T18:09:45.248Z,1.60
2023-09-09T18:12:11.934Z,1.73
2023-09-09T18:14:38.570Z,1.70
2023-09-09T18:17:07.743Z,1.70
2023-09-09T18:19:34.864Z,1.55
2023-09-09T18:22:01.746Z,1.73
2023-09-09T18:24:28.510Z,1.63
2023-09-09T18:26:55.202Z,1.73
2023-09-09T18:29:25.304Z,1.67
2023-09-09T18:31:53.290Z,1.65
2023-09-09T18:34:20.008Z,1.30
2023-09-09T18:36:46.705Z,1.63
2023-09-09T18:39:13.361Z,1.48
2023-09-09T18:41:40.749Z,1.75
2023-09-09T18:44:07.552Z,1.58
2023-09-09T18:46:34.360Z,1.75
2023-09-09T18:49:02.179Z,1.83
2023-09-09T18:51:29.002Z,1.60
2023-09-09T18:53:55.773Z,1.65
2023-09-09T18:56:23.696Z,1.73
2023-09-09T18:58:50.649Z,1.85
2023-09-09T19:01:17.275Z,1.70
2023-09-09T19:03:44.045Z,1.70
2023-09-09T19:06:11.259Z,1.73
2023-09-09T19:08:38.290Z,1.90
2023-09-09T19:13:32.832Z,1.60
2023-09-09T19:15:59.624Z,2.53
2023-09-09T19:18:27.818Z,1.83
2023-09-09T19:20:54.434Z,4.80
2023-09-09T19:23:21.119Z,3.72
2023-09-09T19:25:51.612Z,3.60
2023-09-09T19:28:18.347Z,5.25
2023-09-09T19:30:45.183Z,2.97
2023-09-09T19:33:11.909Z,2.65
2023-09-09T19:35:38.496Z,2.70
2023-09-09T19:38:05.313Z,2.63
2023-09-09T19:40:31.987Z,3.03
2023-09-09T19:42:58.683Z,2.92
2023-09-09T19:45:25.506Z,2.83
2023-09-09T19:47:52.157Z,2.90
2023-09-09T19:50:18.945Z,2.38
2023-09-09T19:52:45.886Z,2.40
2023-09-09T19:55:13.106Z,3.78
2023-09-09T20:00:08.742Z,2.95
2023-09-09T20:02:35.599Z,2.40
2023-09-09T20:05:02.391Z,2.80
2023-09-09T20:07:29.145Z,2.35
2023-09-09T20:10:09.182Z,2.60
2023-09-09T20:12:35.851Z,2.67
2023-09-09T20:15:02.737Z,3.05
2023-09-09T20:17:29.439Z,4.32
2023-09-09T20:19:56.155Z,3.72
2023-09-09T20:22:25.629Z,3.38
2023-09-09T20:24:53.548Z,2.30
2023-09-09T20:27:20.267Z,2.50
2023-09-09T20:29:46.885Z,1.95
2023-09-09T20:32:13.613Z,2.20
2023-09-09T20:34:41.994Z,2.95
2023-09-09T20:37:09.175Z,2.17
2023-09-09T20:39:35.887Z,2.10
2023-09-09T20:42:02.980Z,2.35
2023-09-09T20:44:31.458Z,2.20
2023-09-09T20:46:58.524Z,2.35
2023-09-09T20:49:25.258Z,2.50
2023-09-09T20:51:51.938Z,2.28
2023-09-09T20:54:18.637Z,1.85
2023-09-09T20:56:45.283Z,2.40
2023-09-09T20:59:12.146Z,2.13
2023-09-09T21:01:39.175Z,2.40
2023-09-09T21:04:06.395Z,2.38
2023-09-09T21:06:33.072Z,2.15
2023-09-09T21:08:59.733Z,2.05
2023-09-09T21:11:26.423Z,2.35
2023-09-09T21:13:53.170Z,2.15
2023-09-09T21:16:20.804Z,1.95
2023-09-09T21:18:47.694Z,2.10
2023-09-09T21:21:14.629Z,2.08
2023-09-09T21:23:42.148Z,2.28
2023-09-09T21:26:08.880Z,2.55
2023-09-09T21:28:37.072Z,2.05
2023-09-09T21:31:04.693Z,2.13
2023-09-09T21:33:31.997Z,1.90
2023-09-09T21:35:58.655Z,2.10
2023-09-09T21:38:25.295Z,2.03
2023-09-09T21:40:51.894Z,1.75
2023-09-09T21:43:19.908Z,2.00
2023-09-09T21:45:46.884Z,2.17
2023-09-09T21:48:13.589Z,2.35
2023-09-09T21:50:40.956Z,2.05
2023-09-09T21:53:07.704Z,1.85
2023-09-09T21:55:34.403Z,2.17
2023-09-09T21:58:01.075Z,2.00
2023-09-09T22:00:27.883Z,2.00
2023-09-09T22:02:54.798Z,2.08
2023-09-09T22:05:21.551Z,2.03
2023-09-09T22:07:48.473Z,2.00
2023-09-09T22:10:15.502Z,1.73
2023-09-09T22:12:42.351Z,2.03
2023-09-09T22:15:10.162Z,1.90
2023-09-09T22:17:37.370Z,1.80
2023-09-09T22:20:09.267Z,1.92
2023-09-09T22:22:37.259Z,2.10
2023-09-09T22:25:07.643Z,2.10
2023-09-09T22:27:34.582Z,2.85
2023-09-09T22:30:01.324Z,1.83
2023-09-09T22:32:27.904Z,2.00
2023-09-09T22:34:57.193Z,1.90
2023-09-09T22:37:24.795Z,1.90
2023-09-09T22:39:51.926Z,2.15
2023-09-09T22:42:18.589Z,2.10
2023-09-09T22:44:45.249Z,2.22
2023-09-09T22:47:11.933Z,2.00
2023-09-09T22:49:40.514Z,2.45
2023-09-09T22:52:08.653Z,1.95
2023-09-09T22:54:35.622Z,2.05
2023-09-09T22:57:02.367Z,2.28
2023-09-09T22:59:29.024Z,1.95
2023-09-09T23:01:55.728Z,2.00
2023-09-09T23:04:22.601Z,1.88
2023-09-09T23:06:49.418Z,1.90
2023-09-09T23:09:16.102Z,2.10
2023-09-09T23:11:42.706Z,2.25
2023-09-09T23:14:09.391Z,2.30
2023-09-09T23:16:38.500Z,2.20
2023-09-09T23:19:08.579Z,2.28
2023-09-09T23:21:35.831Z,2.15
2023-09-09T23:24:05.030Z,2.40
2023-09-09T23:26:31.747Z,2.13
2023-09-09T23:28:58.966Z,2.30
2023-09-09T23:31:27.584Z,2.30
2023-09-09T23:33:54.315Z,2.35
2023-09-09T23:36:21.059Z,2.30
2023-09-09T23:38:47.742Z,2.15
2023-09-09T23:41:14.416Z,2.28
2023-09-09T23:43:42.144Z,2.40
2023-09-09T23:46:08.959Z,2.30
2023-09-09T23:48:35.795Z,2.33
2023-09-09T23:51:03.278Z,2.25
2023-09-09T23:53:30.137Z,2.38
2023-09-09T23:55:56.855Z,2.30
2023-09-09T23:58:24.022Z,2.45
